sensor_id;sensor_type;location;lat;lon;timestamp;P1;durP1;ratioP1;P2;durP2;ratioP2
16820;SDS011;8527;49.740;6.604;2023-02-23T00:03:38;28.75;;;14.82;;
16820;SDS011;8527;49.740;6.604;2023-02-23T00:08:37;27.90;;;15.23;;
16820;SDS011;8527;49.740;6.604;2023-02-23T00:13:39;33.15;;;15.15;;
16820;SDS011;8527;49.740;6.604;2023-02-23T00:18:51;29.88;;;15.93;;
16820;SDS011;8527;49.740;6.604;2023-02-23T00:23:51;30.85;;;14.88;;
16820;SDS011;8527;49.740;6.604;2023-02-23T00:28:54;31.13;;;16.40;;
16820;SDS011;8527;49.740;6.604;2023-02-23T00:33:57;42.63;;;18.55;;
16820;SDS011;8527;49.740;6.604;2023-02-23T00:38:57;37.63;;;17.90;;
16820;SDS011;8527;49.740;6.604;2023-02-23T00:44:00;30.70;;;15.60;;
16820;SDS011;8527;49.740;6.604;2023-02-23T00:49:01;27.85;;;15.40;;
16820;SDS011;8527;49.740;6.604;2023-02-23T00:54:00;26.75;;;15.38;;
16820;SDS011;8527;49.740;6.604;2023-02-23T00:58:58;28.02;;;14.52;;
16820;SDS011;8527;49.740;6.604;2023-02-23T01:03:56;25.02;;;14.15;;
16820;SDS011;8527;49.740;6.604;2023-02-23T01:08:57;25.65;;;14.55;;
16820;SDS011;8527;49.740;6.604;2023-02-23T01:13:59;28.50;;;16.40;;
16820;SDS011;8527;49.740;6.604;2023-02-23T01:18:59;27.52;;;15.35;;
16820;SDS011;8527;49.740;6.604;2023-02-23T01:24:01;25.45;;;16.33;;
16820;SDS011;8527;49.740;6.604;2023-02-23T01:29:03;26.05;;;16.10;;
16820;SDS011;8527;49.740;6.604;2023-02-23T01:34:03;26.65;;;15.88;;
16820;SDS011;8527;49.740;6.604;2023-02-23T01:39:09;29.30;;;17.60;;
16820;SDS011;8527;49.740;6.604;2023-02-23T01:59:45;30.23;;;17.48;;
16820;SDS011;8527;49.740;6.604;2023-02-23T02:04:44;27.98;;;16.33;;
16820;SDS011;8527;49.740;6.604;2023-02-23T02:09:48;29.67;;;17.63;;
16820;SDS011;8527;49.740;6.604;2023-02-23T02:15:19;28.23;;;17.17;;
16820;SDS011;8527;49.740;6.604;2023-02-23T02:20:44;33.50;;;17.58;;
16820;SDS011;8527;49.740;6.604;2023-02-23T02:26:04;30.33;;;18.33;;
16820;SDS011;8527;49.740;6.604;2023-02-23T02:42:16;30.23;;;18.33;;
16820;SDS011;8527;49.740;6.604;2023-02-23T02:47:27;30.83;;;18.17;;
16820;SDS011;8527;49.740;6.604;2023-02-23T02:52:37;34.50;;;18.93;;
16820;SDS011;8527;49.740;6.604;2023-02-23T02:57:39;28.20;;;18.42;;
16820;SDS011;8527;49.740;6.604;2023-02-23T03:02:48;30.80;;;19.10;;
16820;SDS011;8527;49.740;6.604;2023-02-23T03:08:04;28.88;;;17.98;;
16820;SDS011;8527;49.740;6.604;2023-02-23T03:13:30;36.17;;;19.35;;
16820;SDS011;8527;49.740;6.604;2023-02-23T03:18:53;31.15;;;18.95;;
16820;SDS011;8527;49.740;6.604;2023-02-23T03:24:23;27.33;;;17.75;;
16820;SDS011;8527;49.740;6.604;2023-02-23T03:29:44;27.30;;;17.58;;
16820;SDS011;8527;49.740;6.604;2023-02-23T03:35:18;28.20;;;17.33;;
16820;SDS011;8527;49.740;6.604;2023-02-23T03:40:36;27.65;;;17.17;;
16820;SDS011;8527;49.740;6.604;2023-02-23T03:45:49;26.75;;;16.92;;
16820;SDS011;8527;49.740;6.604;2023-02-23T03:51:02;30.92;;;17.52;;
16820;SDS011;8527;49.740;6.604;2023-02-23T03:56:25;26.23;;;16.83;;
16820;SDS011;8527;49.740;6.604;2023-02-23T04:01:38;26.17;;;15.75;;
16820;SDS011;8527;49.740;6.604;2023-02-23T04:06:49;27.85;;;15.95;;
16820;SDS011;8527;49.740;6.604;2023-02-23T04:12:05;27.60;;;15.75;;
16820;SDS011;8527;49.740;6.604;2023-02-23T04:17:25;25.25;;;14.90;;
16820;SDS011;8527;49.740;6.604;2023-02-23T04:22:45;25.00;;;15.65;;
16820;SDS011;8527;49.740;6.604;2023-02-23T04:27:46;28.27;;;16.85;;
16820;SDS011;8527;49.740;6.604;2023-02-23T04:32:44;27.10;;;15.93;;
16820;SDS011;8527;49.740;6.604;2023-02-23T04:37:43;27.08;;;16.23;;
16820;SDS011;8527;49.740;6.604;2023-02-23T04:42:41;30.13;;;15.75;;
16820;SDS011;8527;49.740;6.604;2023-02-23T04:47:45;22.02;;;14.00;;
16820;SDS011;8527;49.740;6.604;2023-02-23T04:52:50;23.92;;;14.73;;
16820;SDS011;8527;49.740;6.604;2023-02-23T04:57:55;24.13;;;14.50;;
16820;SDS011;8527;49.740;6.604;2023-02-23T05:02:54;23.05;;;13.82;;
16820;SDS011;8527;49.740;6.604;2023-02-23T05:07:53;23.23;;;13.43;;
16820;SDS011;8527;49.740;6.604;2023-02-23T05:12:54;21.33;;;13.13;;
16820;SDS011;8527;49.740;6.604;2023-02-23T05:17:53;22.20;;;14.30;;
16820;SDS011;8527;49.740;6.604;2023-02-23T05:22:54;23.15;;;13.73;;
16820;SDS011;8527;49.740;6.604;2023-02-23T05:27:56;23.77;;;14.48;;
16820;SDS011;8527;49.740;6.604;2023-02-23T05:32:55;24.73;;;14.18;;
16820;SDS011;8527;49.740;6.604;2023-02-23T05:37:55;21.73;;;13.85;;
16820;SDS011;8527;49.740;6.604;2023-02-23T05:43:02;22.23;;;14.20;;
16820;SDS011;8527;49.740;6.604;2023-02-23T05:48:00;20.75;;;13.15;;
16820;SDS011;8527;49.740;6.604;2023-02-23T05:52:59;21.25;;;13.18;;
16820;SDS011;8527;49.740;6.604;2023-02-23T05:58:02;22.40;;;12.70;;
16820;SDS011;8527;49.740;6.604;2023-02-23T06:03:01;23.20;;;14.00;;
16820;SDS011;8527;49.740;6.604;2023-02-23T06:07:59;20.92;;;12.20;;
16820;SDS011;8527;49.740;6.604;2023-02-23T06:12:58;22.67;;;12.98;;
16820;SDS011;8527;49.740;6.604;2023-02-23T06:18:00;25.05;;;13.55;;
16820;SDS011;8527;49.740;6.604;2023-02-23T06:22:58;22.25;;;12.50;;
16820;SDS011;8527;49.740;6.604;2023-02-23T06:27:56;21.35;;;12.25;;
16820;SDS011;8527;49.740;6.604;2023-02-23T06:32:57;23.83;;;12.85;;
16820;SDS011;8527;49.740;6.604;2023-02-23T06:38:02;19.55;;;12.00;;
16820;SDS011;8527;49.740;6.604;2023-02-23T06:43:01;25.95;;;14.52;;
16820;SDS011;8527;49.740;6.604;2023-02-23T06:48:03;26.90;;;15.77;;
16820;SDS011;8527;49.740;6.604;2023-02-23T06:53:01;24.63;;;14.23;;
16820;SDS011;8527;49.740;6.604;2023-02-23T06:58:00;28.58;;;15.55;;
16820;SDS011;8527;49.740;6.604;2023-02-23T07:02:59;29.23;;;15.65;;
16820;SDS011;8527;49.740;6.604;2023-02-23T07:08:00;41.28;;;19.85;;
16820;SDS011;8527;49.740;6.604;2023-02-23T07:12:59;32.80;;;16.23;;
16820;SDS011;8527;49.740;6.604;2023-02-23T07:17:57;25.17;;;13.93;;
16820;SDS011;8527;49.740;6.604;2023-02-23T07:22:56;27.60;;;15.07;;
16820;SDS011;8527;49.740;6.604;2023-02-23T07:27:57;23.95;;;14.38;;
16820;SDS011;8527;49.740;6.604;2023-02-23T07:32:55;27.23;;;15.60;;
16820;SDS011;8527;49.740;6.604;2023-02-23T07:37:54;23.00;;;13.13;;
16820;SDS011;8527;49.740;6.604;2023-02-23T07:42:52;24.10;;;13.45;;
16820;SDS011;8527;49.740;6.604;2023-02-23T07:47:56;26.27;;;16.90;;
16820;SDS011;8527;49.740;6.604;2023-02-23T07:52:57;23.77;;;13.38;;
16820;SDS011;8527;49.740;6.604;2023-02-23T07:58:06;27.08;;;14.02;;
16820;SDS011;8527;49.740;6.604;2023-02-23T08:03:04;25.45;;;13.48;;
16820;SDS011;8527;49.740;6.604;2023-02-23T08:08:03;26.58;;;14.75;;
16820;SDS011;8527;49.740;6.604;2023-02-23T08:13:01;26.30;;;13.48;;
16820;SDS011;8527;49.740;6.604;2023-02-23T08:18:02;26.35;;;13.93;;
16820;SDS011;8527;49.740;6.604;2023-02-23T08:23:01;33.67;;;15.15;;
16820;SDS011;8527;49.740;6.604;2023-02-23T08:28:03;27.98;;;14.75;;
16820;SDS011;8527;49.740;6.604;2023-02-23T08:33:04;34.33;;;15.38;;
16820;SDS011;8527;49.740;6.604;2023-02-23T08:38:03;30.60;;;15.00;;
16820;SDS011;8527;49.740;6.604;2023-02-23T08:43:04;27.05;;;14.95;;
16820;SDS011;8527;49.740;6.604;2023-02-23T08:48:05;29.88;;;15.73;;
16820;SDS011;8527;49.740;6.604;2023-02-23T08:53:04;28.58;;;15.55;;
16820;SDS011;8527;49.740;6.604;2023-02-23T08:58:03;31.42;;;15.43;;
16820;SDS011;8527;49.740;6.604;2023-02-23T09:03:06;31.63;;;16.10;;
16820;SDS011;8527;49.740;6.604;2023-02-23T09:08:07;31.77;;;15.82;;
16820;SDS011;8527;49.740;6.604;2023-02-23T09:13:06;31.05;;;15.82;;
16820;SDS011;8527;49.740;6.604;2023-02-23T09:18:09;28.63;;;15.30;;
16820;SDS011;8527;49.740;6.604;2023-02-23T09:23:12;32.08;;;15.20;;
16820;SDS011;8527;49.740;6.604;2023-02-23T09:28:19;30.00;;;16.55;;
16820;SDS011;8527;49.740;6.604;2023-02-23T09:33:22;28.88;;;15.77;;
16820;SDS011;8527;49.740;6.604;2023-02-23T09:38:21;25.92;;;14.05;;
16820;SDS011;8527;49.740;6.604;2023-02-23T09:43:21;27.70;;;15.43;;
16820;SDS011;8527;49.740;6.604;2023-02-23T09:48:37;27.48;;;15.75;;
16820;SDS011;8527;49.740;6.604;2023-02-23T09:53:38;30.13;;;15.52;;
16820;SDS011;8527;49.740;6.604;2023-02-23T09:58:39;28.83;;;15.90;;
16820;SDS011;8527;49.740;6.604;2023-02-23T10:03:41;27.85;;;14.88;;
16820;SDS011;8527;49.740;6.604;2023-02-23T10:08:49;28.35;;;15.13;;
16820;SDS011;8527;49.740;6.604;2023-02-23T10:14:03;27.80;;;14.90;;
16820;SDS011;8527;49.740;6.604;2023-02-23T10:19:19;31.40;;;15.05;;
16820;SDS011;8527;49.740;6.604;2023-02-23T10:24:24;34.22;;;15.77;;
16820;SDS011;8527;49.740;6.604;2023-02-23T10:29:27;29.33;;;15.32;;
16820;SDS011;8527;49.740;6.604;2023-02-23T10:34:32;28.52;;;14.82;;
16820;SDS011;8527;49.740;6.604;2023-02-23T10:39:34;28.08;;;14.60;;
16820;SDS011;8527;49.740;6.604;2023-02-23T10:44:38;25.25;;;14.60;;
16820;SDS011;8527;49.740;6.604;2023-02-23T10:49:43;26.10;;;14.15;;
16820;SDS011;8527;49.740;6.604;2023-02-23T10:54:43;28.00;;;14.77;;
16820;SDS011;8527;49.740;6.604;2023-02-23T10:59:56;28.38;;;15.27;;
16820;SDS011;8527;49.740;6.604;2023-02-23T11:05:00;27.88;;;15.05;;
16820;SDS011;8527;49.740;6.604;2023-02-23T11:10:14;30.70;;;15.98;;
16820;SDS011;8527;49.740;6.604;2023-02-23T11:15:27;28.02;;;15.40;;
16820;SDS011;8527;49.740;6.604;2023-02-23T11:20:31;30.10;;;16.48;;
16820;SDS011;8527;49.740;6.604;2023-02-23T11:25:36;26.48;;;14.95;;
16820;SDS011;8527;49.740;6.604;2023-02-23T11:30:35;27.00;;;14.57;;
16820;SDS011;8527;49.740;6.604;2023-02-23T11:35:40;30.67;;;16.05;;
16820;SDS011;8527;49.740;6.604;2023-02-23T11:40:38;29.65;;;15.63;;
16820;SDS011;8527;49.740;6.604;2023-02-23T11:45:58;26.67;;;14.65;;
16820;SDS011;8527;49.740;6.604;2023-02-23T11:51:03;27.65;;;15.30;;
16820;SDS011;8527;49.740;6.604;2023-02-23T11:56:03;27.20;;;15.73;;
16820;SDS011;8527;49.740;6.604;2023-02-23T12:01:19;27.10;;;15.15;;
16820;SDS011;8527;49.740;6.604;2023-02-23T12:06:33;27.67;;;16.10;;
16820;SDS011;8527;49.740;6.604;2023-02-23T12:11:34;31.02;;;16.35;;
16820;SDS011;8527;49.740;6.604;2023-02-23T12:16:39;27.60;;;15.88;;
16820;SDS011;8527;49.740;6.604;2023-02-23T12:21:52;26.85;;;14.85;;
16820;SDS011;8527;49.740;6.604;2023-02-23T12:26:58;31.58;;;16.42;;
16820;SDS011;8527;49.740;6.604;2023-02-23T12:32:10;33.22;;;16.73;;
16820;SDS011;8527;49.740;6.604;2023-02-23T12:37:19;32.03;;;15.70;;
16820;SDS011;8527;49.740;6.604;2023-02-23T12:42:34;30.80;;;17.23;;
16820;SDS011;8527;49.740;6.604;2023-02-23T12:47:38;30.75;;;16.98;;
16820;SDS011;8527;49.740;6.604;2023-02-23T12:52:47;26.10;;;15.10;;
16820;SDS011;8527;49.740;6.604;2023-02-23T12:57:51;26.30;;;14.98;;
16820;SDS011;8527;49.740;6.604;2023-02-23T13:08:28;25.50;;;13.65;;
16820;SDS011;8527;49.740;6.604;2023-02-23T13:13:49;26.27;;;15.02;;
16820;SDS011;8527;49.740;6.604;2023-02-23T13:18:58;25.30;;;14.73;;
16820;SDS011;8527;49.740;6.604;2023-02-23T13:24:14;22.67;;;13.90;;
16820;SDS011;8527;49.740;6.604;2023-02-23T13:29:21;28.45;;;15.43;;
16820;SDS011;8527;49.740;6.604;2023-02-23T13:34:29;27.27;;;14.73;;
16820;SDS011;8527;49.740;6.604;2023-02-23T13:39:39;26.02;;;14.73;;
16820;SDS011;8527;49.740;6.604;2023-02-23T13:44:46;24.92;;;14.13;;
16820;SDS011;8527;49.740;6.604;2023-02-23T13:49:53;27.52;;;14.70;;
16820;SDS011;8527;49.740;6.604;2023-02-23T13:55:03;26.65;;;14.45;;
16820;SDS011;8527;49.740;6.604;2023-02-23T14:00:22;24.77;;;13.48;;
16820;SDS011;8527;49.740;6.604;2023-02-23T14:05:21;23.60;;;14.43;;
16820;SDS011;8527;49.740;6.604;2023-02-23T14:10:29;24.48;;;14.02;;
16820;SDS011;8527;49.740;6.604;2023-02-23T14:15:41;22.70;;;13.07;;
16820;SDS011;8527;49.740;6.604;2023-02-23T14:20:51;24.60;;;14.50;;
16820;SDS011;8527;49.740;6.604;2023-02-23T14:26:07;26.40;;;15.75;;
16820;SDS011;8527;49.740;6.604;2023-02-23T14:31:20;21.80;;;12.90;;
16820;SDS011;8527;49.740;6.604;2023-02-23T14:41:49;25.45;;;12.98;;
16820;SDS011;8527;49.740;6.604;2023-02-23T14:46:59;23.15;;;13.73;;
16820;SDS011;8527;49.740;6.604;2023-02-23T14:51:59;22.60;;;13.40;;
16820;SDS011;8527;49.740;6.604;2023-02-23T14:57:18;24.15;;;13.07;;
16820;SDS011;8527;49.740;6.604;2023-02-23T15:02:21;23.23;;;13.05;;
16820;SDS011;8527;49.740;6.604;2023-02-23T15:07:27;22.17;;;13.13;;
16820;SDS011;8527;49.740;6.604;2023-02-23T15:12:33;25.08;;;13.32;;
16820;SDS011;8527;49.740;6.604;2023-02-23T15:17:33;22.90;;;13.57;;
16820;SDS011;8527;49.740;6.604;2023-02-23T15:22:32;27.92;;;15.70;;
16820;SDS011;8527;49.740;6.604;2023-02-23T15:27:39;30.17;;;15.25;;
16820;SDS011;8527;49.740;6.604;2023-02-23T15:32:39;25.67;;;13.73;;
16820;SDS011;8527;49.740;6.604;2023-02-23T15:37:38;21.10;;;13.50;;
16820;SDS011;8527;49.740;6.604;2023-02-23T15:42:42;23.30;;;11.90;;
16820;SDS011;8527;49.740;6.604;2023-02-23T15:47:50;22.95;;;13.57;;
16820;SDS011;8527;49.740;6.604;2023-02-23T15:52:51;28.52;;;14.45;;
16820;SDS011;8527;49.740;6.604;2023-02-23T15:57:59;33.88;;;17.40;;
16820;SDS011;8527;49.740;6.604;2023-02-23T16:03:23;28.67;;;13.73;;
16820;SDS011;8527;49.740;6.604;2023-02-23T16:08:26;19.90;;;11.55;;
16820;SDS011;8527;49.740;6.604;2023-02-23T16:13:28;29.48;;;15.18;;
16820;SDS011;8527;49.740;6.604;2023-02-23T16:18:31;21.75;;;13.77;;
16820;SDS011;8527;49.740;6.604;2023-02-23T16:23:40;21.52;;;11.10;;
16820;SDS011;8527;49.740;6.604;2023-02-23T16:28:44;23.95;;;12.13;;
16820;SDS011;8527;49.740;6.604;2023-02-23T16:33:44;18.27;;;11.45;;
16820;SDS011;8527;49.740;6.604;2023-02-23T16:38:57;22.15;;;12.32;;
16820;SDS011;8527;49.740;6.604;2023-02-23T16:44:05;17.08;;;9.95;;
16820;SDS011;8527;49.740;6.604;2023-02-23T16:49:04;19.77;;;12.20;;
16820;SDS011;8527;49.740;6.604;2023-02-23T16:54:04;14.73;;;8.38;;
16820;SDS011;8527;49.740;6.604;2023-02-23T16:59:05;17.70;;;9.88;;
16820;SDS011;8527;49.740;6.604;2023-02-23T17:04:08;17.48;;;9.90;;
16820;SDS011;8527;49.740;6.604;2023-02-23T17:09:13;8.63;;;5.57;;
16820;SDS011;8527;49.740;6.604;2023-02-23T17:14:18;14.80;;;8.23;;
16820;SDS011;8527;49.740;6.604;2023-02-23T17:19:21;12.57;;;5.28;;
16820;SDS011;8527;49.740;6.604;2023-02-23T17:24:19;11.50;;;6.38;;
16820;SDS011;8527;49.740;6.604;2023-02-23T17:29:24;10.38;;;5.63;;
16820;SDS011;8527;49.740;6.604;2023-02-23T17:34:22;14.20;;;7.68;;
16820;SDS011;8527;49.740;6.604;2023-02-23T17:39:23;8.65;;;5.22;;
16820;SDS011;8527;49.740;6.604;2023-02-23T17:44:25;12.32;;;6.68;;
16820;SDS011;8527;49.740;6.604;2023-02-23T17:49:24;10.07;;;5.18;;
16820;SDS011;8527;49.740;6.604;2023-02-23T17:54:26;13.15;;;5.47;;
16820;SDS011;8527;49.740;6.604;2023-02-23T17:59:27;8.75;;;5.18;;
16820;SDS011;8527;49.740;6.604;2023-02-23T18:04:25;10.57;;;6.03;;
16820;SDS011;8527;49.740;6.604;2023-02-23T18:09:27;10.75;;;5.82;;
16820;SDS011;8527;49.740;6.604;2023-02-23T18:14:28;11.13;;;5.57;;
16820;SDS011;8527;49.740;6.604;2023-02-23T18:19:26;12.15;;;5.82;;
16820;SDS011;8527;49.740;6.604;2023-02-23T18:24:25;9.45;;;4.85;;
16820;SDS011;8527;49.740;6.604;2023-02-23T18:29:32;10.52;;;6.10;;
16820;SDS011;8527;49.740;6.604;2023-02-23T18:34:32;14.10;;;7.10;;
16820;SDS011;8527;49.740;6.604;2023-02-23T18:39:31;17.63;;;9.30;;
16820;SDS011;8527;49.740;6.604;2023-02-23T18:44:32;13.60;;;7.32;;
16820;SDS011;8527;49.740;6.604;2023-02-23T18:49:31;10.43;;;5.75;;
16820;SDS011;8527;49.740;6.604;2023-02-23T18:54:29;8.85;;;4.93;;
16820;SDS011;8527;49.740;6.604;2023-02-23T18:59:33;11.02;;;5.72;;
16820;SDS011;8527;49.740;6.604;2023-02-23T19:04:32;10.95;;;6.47;;
16820;SDS011;8527;49.740;6.604;2023-02-23T19:09:31;9.85;;;6.47;;
16820;SDS011;8527;49.740;6.604;2023-02-23T19:14:38;11.13;;;6.10;;
16820;SDS011;8527;49.740;6.604;2023-02-23T19:19:43;11.93;;;6.40;;
16820;SDS011;8527;49.740;6.604;2023-02-23T19:24:45;13.30;;;6.40;;
16820;SDS011;8527;49.740;6.604;2023-02-23T19:29:46;12.10;;;6.70;;
16820;SDS011;8527;49.740;6.604;2023-02-23T19:34:45;10.90;;;6.55;;
16820;SDS011;8527;49.740;6.604;2023-02-23T19:39:43;11.50;;;6.57;;
16820;SDS011;8527;49.740;6.604;2023-02-23T19:44:42;9.02;;;6.10;;
16820;SDS011;8527;49.740;6.604;2023-02-23T19:49:44;13.77;;;7.32;;
16820;SDS011;8527;49.740;6.604;2023-02-23T19:54:42;7.68;;;5.20;;
16820;SDS011;8527;49.740;6.604;2023-02-23T19:59:44;11.55;;;6.65;;
16820;SDS011;8527;49.740;6.604;2023-02-23T20:04:45;13.52;;;6.18;;
16820;SDS011;8527;49.740;6.604;2023-02-23T20:09:44;10.00;;;6.45;;
16820;SDS011;8527;49.740;6.604;2023-02-23T20:14:42;11.30;;;6.20;;
16820;SDS011;8527;49.740;6.604;2023-02-23T20:19:46;10.50;;;6.30;;
16820;SDS011;8527;49.740;6.604;2023-02-23T20:24:44;11.65;;;7.03;;
16820;SDS011;8527;49.740;6.604;2023-02-23T20:29:43;9.60;;;5.75;;
16820;SDS011;8527;49.740;6.604;2023-02-23T20:34:42;11.13;;;5.95;;
16820;SDS011;8527;49.740;6.604;2023-02-23T20:39:45;16.05;;;8.25;;
16820;SDS011;8527;49.740;6.604;2023-02-23T20:44:47;17.50;;;9.57;;
16820;SDS011;8527;49.740;6.604;2023-02-23T20:49:46;21.85;;;10.60;;
16820;SDS011;8527;49.740;6.604;2023-02-23T20:54:50;20.95;;;10.95;;
16820;SDS011;8527;49.740;6.604;2023-02-23T20:59:49;20.65;;;10.35;;
16820;SDS011;8527;49.740;6.604;2023-02-23T21:04:48;22.52;;;10.70;;
16820;SDS011;8527;49.740;6.604;2023-02-23T21:09:51;22.85;;;10.55;;
16820;SDS011;8527;49.740;6.604;2023-02-23T21:14:53;21.88;;;11.57;;
16820;SDS011;8527;49.740;6.604;2023-02-23T21:19:54;31.50;;;14.02;;
16820;SDS011;8527;49.740;6.604;2023-02-23T21:25:01;27.95;;;12.68;;
16820;SDS011;8527;49.740;6.604;2023-02-23T21:30:04;25.67;;;11.98;;
16820;SDS011;8527;49.740;6.604;2023-02-23T21:35:03;27.75;;;12.65;;
16820;SDS011;8527;49.740;6.604;2023-02-23T21:40:09;34.63;;;14.32;;
16820;SDS011;8527;49.740;6.604;2023-02-23T21:45:11;29.15;;;12.63;;
16820;SDS011;8527;49.740;6.604;2023-02-23T21:50:11;33.47;;;14.38;;
16820;SDS011;8527;49.740;6.604;2023-02-23T21:55:14;39.97;;;17.63;;
16820;SDS011;8527;49.740;6.604;2023-02-23T22:00:14;35.17;;;15.77;;
16820;SDS011;8527;49.740;6.604;2023-02-23T22:05:13;29.52;;;13.82;;
16820;SDS011;8527;49.740;6.604;2023-02-23T22:10:22;28.63;;;12.75;;
16820;SDS011;8527;49.740;6.604;2023-02-23T22:15:20;29.05;;;12.38;;
16820;SDS011;8527;49.740;6.604;2023-02-23T22:20:22;32.85;;;13.05;;
16820;SDS011;8527;49.740;6.604;2023-02-23T22:25:23;28.10;;;12.57;;
16820;SDS011;8527;49.740;6.604;2023-02-23T22:30:22;32.88;;;13.45;;
16820;SDS011;8527;49.740;6.604;2023-02-23T22:35:22;31.63;;;14.57;;
16820;SDS011;8527;49.740;6.604;2023-02-23T22:40:23;29.83;;;12.95;;
16820;SDS011;8527;49.740;6.604;2023-02-23T22:45:22;31.88;;;13.32;;
16820;SDS011;8527;49.740;6.604;2023-02-23T22:50:20;33.30;;;13.90;;
16820;SDS011;8527;49.740;6.604;2023-02-23T22:55:19;32.88;;;13.88;;
16820;SDS011;8527;49.740;6.604;2023-02-23T23:00:24;32.38;;;13.90;;
16820;SDS011;8527;49.740;6.604;2023-02-23T23:05:23;31.85;;;13.05;;
16820;SDS011;8527;49.740;6.604;2023-02-23T23:10:24;33.63;;;13.32;;
16820;SDS011;8527;49.740;6.604;2023-02-23T23:15:28;31.13;;;14.25;;
16820;SDS011;8527;49.740;6.604;2023-02-23T23:20:28;32.00;;;14.18;;
16820;SDS011;8527;49.740;6.604;2023-02-23T23:25:28;30.73;;;12.05;;
16820;SDS011;8527;49.740;6.604;2023-02-23T23:30:29;25.98;;;11.23;;
16820;SDS011;8527;49.740;6.604;2023-02-23T23:35:32;31.60;;;13.43;;
16820;SDS011;8527;49.740;6.604;2023-02-23T23:40:32;33.05;;;12.90;;
16820;SDS011;8527;49.740;6.604;2023-02-23T23:45:33;26.05;;;12.00;;
16820;SDS011;8527;49.740;6.604;2023-02-23T23:50:37;30.40;;;12.73;;
16820;SDS011;8527;49.740;6.604;2023-02-23T23:55:36;34.45;;;13.60;;
